Time;durP1;ratioP1;P1;durP2;ratioP2;P2;SDS_P1;SDS_P2;PMS_P1;PMS_P2;Temp;Humidity;BMP_temperature;BMP_pressure;BME280_temperature;BME280_humidity;BME280_pressure;Samples;Min_cycle;Max_cycle;Signal;HPM_P1;HPM_P2
2021/09/16 03:44:36;;;;;;;24.20;14.70;;;;;;;20.55;100.00;101178.97;6284931;22;20055;-73
2021/09/16 03:47:22;;;;;;;24.67;14.07;;;;;;;20.81;100.00;101188.28;6308380;22;20026;-73
2021/09/16 03:50:08;;;;;;;24.65;14.20;;;;;;;21.05;100.00;101187.03;6307942;22;20018;-73
2021/09/16 03:52:54;;;;;;;21.25;14.63;;;;;;;21.05;100.00;101195.03;6308866;22;20425;-72
2021/09/16 03:55:40;;;;;;;25.70;13.60;;;;;;;21.40;100.00;101192.19;6286229;22;20063;-72
2021/09/16 03:58:27;;;;;;;19.88;14.05;;;;;;;20.61;100.00;101185.78;6309667;22;20086;-72
2021/09/16 04:01:12;;;;;;;20.58;12.85;;;;;;;20.86;100.00;101191.56;6288095;22;20007;-72
2021/09/16 04:03:58;;;;;;;22.70;13.30;;;;;;;21.03;100.00;101187.13;6308577;22;20017;-72
2021/09/16 07:15:07;;;;;;;28.42;12.05;;;;;;;25.26;98.12;101252.66;6291266;22;20020;-73
2021/09/16 07:17:56;;;;;;;27.40;16.23;;;;;;;25.44;97.20;101252.25;6276384;22;20019;-72
2021/09/16 07:20:42;;;;;;;29.80;12.63;;;;;;;25.72;95.42;101251.16;6277470;22;20425;-73
2021/09/16 07:23:28;;;;;;;23.08;10.80;;;;;;;25.75;94.26;101261.66;6277507;22;20011;-72
2021/09/16 07:26:14;;;;;;;29.50;11.35;;;;;;;25.09;95.99;101261.00;6276076;22;20083;-72
2021/09/16 07:29:00;;;;;;;25.40;16.10;;;;;;;26.11;91.11;101259.03;6255116;22;20004;-73
2021/09/16 07:31:47;;;;;;;25.13;14.70;;;;;;;25.86;95.51;101262.63;6276861;22;20008;-73
2021/09/16 09:42:16;;;;;;;11.95;8.65;;;;;;;30.02;50.16;101211.34;6262532;22;20023;-73
2021/09/16 09:45:08;;;;;;;16.80;9.88;;;;;;;30.61;49.53;101210.28;6278712;22;20031;-73
2021/09/16 09:47:54;;;;;;;17.27;13.07;;;;;;;30.74;48.77;101210.88;6247072;23;20027;-74
2021/09/16 09:50:52;;;;;;;16.30;9.77;;;;;;;30.46;47.99;101203.59;6226841;23;20008;-73
2021/09/16 09:53:52;;;;;;;17.58;9.30;;;;;;;30.97;47.60;101203.31;6248964;23;20018;-73
2021/09/16 09:56:37;;;;;;;14.27;9.60;;;;;;;30.98;45.60;101199.63;6248119;22;20023;-74
2021/09/16 09:59:25;;;;;;;18.45;9.98;;;;;;;30.65;46.02;101194.63;6247621;23;20014;-73
2021/09/16 10:02:15;;;;;;;15.95;9.30;;;;;;;30.71;46.12;101194.09;6247226;23;20004;-73
2021/09/16 13:36:52;;;;;;;17.85;13.48;;;;;;;33.26;35.44;100990.88;6288577;22;20023;-72
2021/09/16 13:39:38;;;;;;;18.15;12.77;;;;;;;32.54;35.57;100995.97;6308302;22;20011;-73
2021/09/16 13:42:24;;;;;;;21.67;13.07;;;;;;;32.71;35.51;100992.31;6308750;22;20007;-73
2021/09/16 13:45:12;;;;;;;18.17;12.55;;;;;;;32.63;34.85;100994.97;6287427;22;20301;-72
2021/09/16 13:48:03;;;;;;;22.15;12.50;;;;;;;32.56;34.98;100986.66;6308729;22;20003;-72
2021/09/16 13:50:49;;;;;;;14.73;11.65;;;;;;;32.34;34.99;100986.34;6309322;22;20078;-72
2021/09/16 13:53:35;;;;;;;17.65;12.98;;;;;;;32.70;34.65;100985.19;6307947;22;20425;-73
2021/09/16 13:56:21;;;;;;;17.02;11.40;;;;;;;32.56;34.80;100983.06;6306693;22;20318;-72
2021/09/16 13:59:10;;;;;;;22.05;12.48;;;;;;;32.42;34.91;100989.94;6285117;22;20085;-73
2021/09/16 14:01:55;;;;;;;20.88;12.98;;;;;;;32.10;35.03;100986.13;6287285;22;20014;-73
2021/09/16 14:04:41;;;;;;;19.10;13.75;;;;;;;32.02;35.27;100983.34;6307997;22;20007;-72
2021/09/16 14:07:27;;;;;;;20.90;14.00;;;;;;;32.37;35.18;100981.44;6285002;22;20068;-72
2021/09/16 14:10:14;;;;;;;21.52;13.73;;;;;;;32.61;35.09;100981.56;6309095;22;20038;-73
2021/09/16 14:13:00;;;;;;;17.23;11.93;;;;;;;32.14;35.04;100979.38;6307332;22;20029;-73
2021/09/16 14:15:46;;;;;;;20.83;12.98;;;;;;;32.40;35.56;100977.53;6307905;22;20086;-72
2021/09/16 17:57:13;;;;;;;35.03;18.17;;;;;;;27.19;63.94;101057.00;6263663;22;20019;-73
2021/09/16 17:59:59;;;;;;;28.95;17.75;;;;;;;27.36;62.26;101060.09;6308855;22;20322;-73
2021/09/16 18:02:45;;;;;;;31.42;18.33;;;;;;;27.08;63.68;101057.03;6287418;22;20031;-73
2021/09/16 18:05:31;;;;;;;32.13;19.20;;;;;;;27.28;64.66;101056.28;6308654;22;20031;-71
2021/09/16 18:08:17;;;;;;;29.90;18.33;;;;;;;27.16;65.06;101044.66;6286982;22;20309;-72
2021/09/16 18:11:02;;;;;;;29.83;18.05;;;;;;;27.18;63.26;101056.19;6287472;22;20007;-72
2021/09/16 18:13:49;;;;;;;24.75;17.67;;;;;;;27.06;62.03;101053.63;6286937;22;20013;-72
2021/09/16 18:16:34;;;;;;;28.58;17.23;;;;;;;26.89;61.18;101054.13;6307494;22;20027;-74
